Lake of the Forest, Kansas
Current Conditions -  °F | °C
As of 9:53 AM on Tuesday 21 Oct 2014 (Local Time) from KIXD Reporting Station
Clear Clear  
Wind Chill: 62°   Ceiling: Unl
Heat Index: 62°   Visibility: 10mi
Dew Point: 51°   Wind: 0mph
Humidity: 67%   Direction: NA
Pressure: 30.14"   Gusts: NA
Location:  39.0619°N, 94.8881°W
Report Text: KIXD 211453Z 00000KT 10SM CLR 17/11 A3014 RMK AO2 SLP203 T01670106 51007
Loading
Personal Weather Stations






























Interactive Weather Map New forecast layout! Learn more

10-Day Weather Forecast

Advertisements
Track Severe Weather on mobile